createdAt,value
2018-11-28T00:01:31.359Z,98.60
2018-11-28T00:03:59.662Z,98.50
2018-11-28T00:06:27.926Z,98.70
2018-11-28T00:08:56.200Z,98.60
2018-11-28T00:11:24.464Z,98.60
2018-11-28T00:13:52.739Z,98.60
2018-11-28T00:16:20.981Z,98.60
2018-11-28T00:18:49.275Z,98.50
2018-11-28T00:21:17.569Z,98.50
2018-11-28T00:23:45.943Z,98.50
2018-11-28T00:26:14.231Z,98.50
2018-11-28T00:28:42.530Z,98.60
2018-11-28T00:31:10.836Z,98.60
2018-11-28T00:33:39.138Z,98.60
2018-11-28T00:36:07.387Z,98.50
2018-11-28T00:38:35.675Z,98.40
2018-11-28T00:41:03.935Z,98.30
2018-11-28T00:43:32.239Z,98.30
2018-11-28T00:46:00.542Z,98.40
2018-11-28T00:48:28.845Z,98.30
2018-11-28T00:50:57.146Z,98.30
2018-11-28T00:53:25.446Z,98.40
2018-11-28T00:55:53.764Z,98.30
2018-11-28T00:58:22.044Z,98.20
2018-11-28T01:00:50.315Z,98.20
2018-11-28T01:03:18.590Z,98.30
2018-11-28T01:05:46.876Z,98.20
2018-11-28T01:08:15.173Z,98.30
2018-11-28T01:10:43.452Z,98.20
2018-11-28T01:13:11.753Z,98.30
2018-11-28T01:15:40.162Z,98.20
2018-11-28T01:18:08.430Z,98.10
2018-11-28T01:20:36.709Z,98.50
2018-11-28T01:23:05.115Z,98.20
2018-11-28T01:25:33.400Z,98.20
2018-11-28T01:28:01.701Z,98.20
2018-11-28T01:30:29.995Z,98.20
2018-11-28T01:32:58.738Z,98.20
2018-11-28T01:35:27.654Z,98.30
2018-11-28T01:37:55.993Z,98.30
2018-11-28T01:40:24.858Z,98.40
2018-11-28T01:42:53.254Z,98.40
2018-11-28T01:45:22.666Z,98.50
2018-11-28T01:47:50.987Z,98.50
2018-11-28T01:50:21.098Z,98.60
2018-11-28T01:52:49.483Z,98.50
2018-11-28T01:55:19.829Z,98.60
2018-11-28T01:57:48.127Z,98.60
2018-11-28T02:00:17.430Z,98.60
2018-11-28T02:02:45.974Z,98.60
2018-11-28T02:05:14.295Z,98.80
2018-11-28T02:07:42.601Z,98.80
2018-11-28T02:10:14.104Z,98.80
2018-11-28T02:12:43.172Z,98.80
2018-11-28T02:15:16.336Z,98.90
2018-11-28T02:17:44.647Z,99.00
2018-11-28T02:20:13.963Z,99.00
2018-11-28T02:22:42.299Z,99.10
2018-11-28T02:25:12.675Z,99.20
2018-11-28T02:27:40.974Z,99.20
2018-11-28T02:30:18.868Z,99.30
2018-11-28T02:32:47.908Z,99.40
2018-11-28T02:35:16.830Z,99.40
2018-11-28T02:37:45.109Z,99.50
2018-11-28T02:40:15.173Z,99.50
2018-11-28T02:42:43.572Z,99.50
2018-11-28T02:45:22.765Z,99.60
2018-11-28T02:47:51.938Z,99.70
2018-11-28T02:50:20.278Z,99.60
2018-11-28T02:52:48.517Z,99.70
2018-11-28T02:55:17.822Z,99.70
2018-11-28T02:57:49.041Z,99.70
2018-11-28T03:00:24.350Z,99.70
2018-11-28T03:02:52.854Z,99.70
2018-11-28T03:05:21.260Z,99.90
2018-11-28T03:07:49.551Z,99.80
2018-11-28T03:10:18.912Z,99.80
2018-11-28T03:12:47.262Z,99.80
2018-11-28T03:15:19.527Z,99.80
2018-11-28T03:17:47.823Z,99.90
2018-11-28T03:20:16.140Z,99.80
2018-11-28T03:22:44.451Z,99.90
2018-11-28T03:25:12.735Z,99.90
2018-11-28T03:27:41.008Z,99.90
2018-11-28T03:30:14.385Z,99.90
2018-11-28T03:32:42.725Z,99.90
2018-11-28T03:35:12.358Z,99.90
2018-11-28T03:37:40.671Z,99.90
2018-11-28T03:40:09.065Z,99.90
2018-11-28T03:42:37.376Z,99.90
2018-11-28T03:45:08.339Z,99.90
2018-11-28T03:47:36.623Z,99.90
2018-11-28T03:50:05.094Z,99.90
2018-11-28T03:52:33.414Z,99.90
2018-11-28T03:55:21.619Z,99.90
2018-11-28T03:57:50.216Z,99.90
2018-11-28T04:00:20.492Z,99.90
2018-11-28T04:02:49.316Z,99.90
2018-11-28T04:05:17.659Z,99.90
2018-11-28T04:07:45.962Z,99.90
2018-11-28T04:10:15.050Z,99.90
2018-11-28T04:12:44.073Z,99.90
2018-11-28T04:15:16.378Z,99.90
2018-11-28T04:17:44.680Z,99.90
2018-11-28T04:20:17.822Z,99.90
2018-11-28T04:22:46.074Z,99.90
2018-11-28T04:25:15.197Z,99.90
2018-11-28T04:27:43.490Z,99.90
2018-11-28T04:30:13.971Z,99.90
2018-11-28T04:32:42.209Z,99.90
2018-11-28T04:35:11.782Z,99.90
2018-11-28T04:37:40.054Z,99.90
2018-11-28T04:40:12.419Z,99.90
2018-11-28T04:42:40.735Z,99.90
2018-11-28T04:45:11.535Z,99.90
2018-11-28T04:47:39.827Z,99.90
2018-11-28T04:50:09.286Z,99.90
2018-11-28T04:52:37.627Z,99.90
2018-11-28T04:55:09.766Z,99.90
2018-11-28T04:57:38.054Z,99.90
2018-11-28T05:00:10.638Z,99.90
2018-11-28T05:02:38.907Z,99.90
2018-11-28T05:05:08.082Z,99.90
2018-11-28T05:07:36.383Z,99.90
2018-11-28T05:10:06.930Z,99.90
2018-11-28T05:12:35.207Z,99.90
2018-11-28T05:15:03.575Z,99.90
2018-11-28T05:17:31.822Z,99.90
2018-11-28T05:20:00.165Z,99.90
2018-11-28T05:22:28.426Z,99.90
2018-11-28T05:24:56.717Z,99.90
2018-11-28T05:27:24.985Z,99.90
2018-11-28T05:29:53.290Z,99.90
2018-11-28T05:32:21.578Z,99.90
2018-11-28T05:34:49.935Z,99.90
2018-11-28T05:37:18.186Z,99.90
2018-11-28T05:39:46.499Z,99.90
2018-11-28T05:42:14.787Z,99.90
2018-11-28T05:44:43.075Z,99.90
2018-11-28T05:47:11.362Z,99.90
2018-11-28T05:49:39.658Z,99.90
2018-11-28T05:52:07.947Z,99.90
2018-11-28T05:54:36.240Z,99.90
2018-11-28T05:57:04.541Z,99.90
2018-11-28T05:59:32.831Z,99.90
2018-11-28T06:02:01.150Z,99.90
2018-11-28T06:04:29.446Z,99.90
2018-11-28T06:06:57.739Z,99.90
2018-11-28T06:09:26.143Z,99.90
2018-11-28T06:11:54.399Z,99.90
2018-11-28T06:14:22.653Z,99.90
2018-11-28T06:16:50.971Z,99.90
2018-11-28T06:19:19.251Z,99.90
2018-11-28T06:21:47.523Z,99.90
2018-11-28T06:24:15.791Z,99.90
2018-11-28T06:26:44.042Z,99.90
2018-11-28T06:29:12.322Z,99.90
2018-11-28T06:31:40.582Z,99.90
2018-11-28T06:34:09.046Z,99.90
2018-11-28T06:36:37.314Z,99.90
2018-11-28T06:39:08.315Z,99.90
2018-11-28T06:41:36.853Z,99.90
2018-11-28T06:44:05.142Z,99.90
2018-11-28T06:46:33.462Z,99.90
2018-11-28T06:49:01.743Z,99.90
2018-11-28T06:51:30.054Z,99.90
2018-11-28T06:53:58.316Z,99.90
2018-11-28T06:56:26.590Z,99.90
2018-11-28T06:58:54.843Z,99.90
2018-11-28T07:01:23.139Z,99.90
2018-11-28T07:03:51.623Z,99.90
2018-11-28T07:06:19.941Z,99.90
2018-11-28T07:08:48.215Z,99.90
2018-11-28T07:11:16.515Z,99.90
2018-11-28T07:13:44.776Z,99.90
2018-11-28T07:16:13.055Z,99.90
2018-11-28T07:18:52.579Z,99.90
2018-11-28T07:21:20.866Z,99.90
2018-11-28T07:23:49.271Z,99.90
2018-11-28T07:26:17.570Z,99.90
2018-11-28T07:28:45.847Z,99.90
2018-11-28T07:31:14.158Z,99.90
2018-11-28T07:33:42.586Z,99.90
2018-11-28T07:36:10.831Z,99.90
2018-11-28T07:38:39.135Z,99.90
2018-11-28T07:41:07.419Z,99.90
2018-11-28T07:43:35.724Z,99.90
2018-11-28T07:46:03.994Z,99.90
2018-11-28T07:48:32.283Z,99.90
2018-11-28T07:51:00.559Z,99.90
2018-11-28T07:53:28.831Z,99.90
2018-11-28T07:55:57.108Z,99.90
2018-11-28T07:58:25.411Z,99.90
2018-11-28T08:00:53.747Z,99.90
2018-11-28T08:03:21.999Z,99.90
2018-11-28T08:05:50.263Z,99.90
2018-11-28T08:08:18.551Z,99.90
2018-11-28T08:10:46.830Z,99.90
2018-11-28T08:13:15.126Z,99.90
2018-11-28T08:15:43.420Z,99.90
2018-11-28T08:18:11.710Z,99.90
2018-11-28T08:20:39.976Z,99.90
2018-11-28T08:23:08.227Z,99.90
2018-11-28T08:25:36.629Z,99.90
2018-11-28T08:28:05.149Z,99.90
2018-11-28T08:30:33.420Z,99.90
2018-11-28T08:33:01.686Z,99.90
2018-11-28T08:35:29.922Z,99.90
2018-11-28T08:37:58.248Z,99.90
2018-11-28T08:40:26.884Z,99.90
2018-11-28T08:42:56.239Z,99.90
2018-11-28T08:45:24.511Z,99.90
2018-11-28T08:47:53.922Z,99.90
2018-11-28T08:50:25.561Z,99.90
2018-11-28T08:52:52.751Z,99.90
2018-11-28T08:55:21.114Z,99.90
2018-11-28T08:57:49.403Z,99.90
2018-11-28T09:00:22.701Z,99.90
2018-11-28T09:02:55.055Z,99.90
2018-11-28T09:05:23.357Z,99.90
2018-11-28T09:07:51.642Z,99.90
2018-11-28T09:10:20.407Z,99.90
2018-11-28T09:12:49.403Z,99.90
2018-11-28T09:15:32.362Z,99.90
2018-11-28T09:18:00.737Z,99.90
2018-11-28T09:20:28.966Z,99.90
2018-11-28T09:22:57.246Z,99.90
2018-11-28T09:25:25.575Z,99.90
2018-11-28T09:27:55.136Z,99.90
2018-11-28T09:30:23.421Z,99.90
2018-11-28T09:32:51.814Z,99.90
2018-11-28T09:35:20.451Z,99.90
2018-11-28T09:37:48.788Z,99.90
2018-11-28T09:40:19.095Z,99.90
2018-11-28T09:42:47.767Z,99.90
2018-11-28T09:45:16.794Z,99.90
2018-11-28T09:47:45.129Z,99.90
2018-11-28T09:50:15.427Z,99.90
2018-11-28T09:52:43.675Z,99.90
2018-11-28T09:55:14.258Z,99.90
2018-11-28T09:57:42.582Z,99.90
2018-11-28T10:00:26.409Z,99.90
2018-11-28T10:02:55.815Z,99.80
2018-11-28T10:05:26.244Z,99.90
2018-11-28T10:07:54.518Z,99.80
2018-11-28T10:10:22.787Z,99.70
2018-11-28T10:12:51.070Z,99.90
2018-11-28T10:15:20.449Z,99.80
2018-11-28T10:17:48.772Z,99.60
2018-11-28T10:20:17.677Z,99.60
2018-11-28T10:22:46.196Z,99.50
2018-11-28T10:25:17.495Z,99.50
2018-11-28T10:27:46.986Z,99.50
2018-11-28T10:30:23.150Z,99.50
2018-11-28T10:32:52.130Z,99.30
2018-11-28T10:35:20.451Z,99.20
2018-11-28T10:37:48.741Z,99.30
2018-11-28T10:40:18.029Z,99.10
2018-11-28T10:42:48.190Z,99.20
2018-11-28T10:45:18.549Z,99.00
2018-11-28T10:47:46.871Z,99.00
2018-11-28T10:50:15.595Z,99.00
2018-11-28T10:52:43.980Z,99.00
2018-11-28T10:55:16.247Z,98.90
2018-11-28T10:57:44.646Z,99.00
2018-11-28T11:00:27.365Z,98.90
2018-11-28T11:03:01.039Z,99.00
2018-11-28T11:05:34.720Z,98.80
2018-11-28T11:08:08.324Z,98.80
2018-11-28T11:10:43.464Z,98.60
2018-11-28T11:13:15.787Z,98.80
2018-11-28T11:15:48.601Z,98.90
2018-11-28T11:18:16.946Z,99.00
2018-11-28T11:20:45.363Z,99.10
2018-11-28T11:23:13.641Z,99.20
2018-11-28T11:25:41.927Z,99.20
2018-11-28T11:28:10.223Z,99.20
2018-11-28T11:30:38.513Z,99.20
2018-11-28T11:33:06.802Z,99.70
2018-11-28T11:35:35.165Z,99.10
2018-11-28T11:38:03.429Z,99.10
2018-11-28T11:40:31.707Z,98.80
2018-11-28T11:42:59.981Z,98.60
2018-11-28T11:45:28.535Z,98.60
2018-11-28T11:47:56.831Z,98.50
2018-11-28T11:50:25.131Z,98.40
2018-11-28T11:52:53.402Z,98.30
2018-11-28T11:55:21.674Z,98.00
2018-11-28T11:57:50.274Z,98.00
2018-11-28T12:00:21.589Z,98.00
2018-11-28T12:03:09.517Z,97.60
2018-11-28T12:05:38.053Z,97.40
2018-11-28T12:08:07.162Z,97.10
2018-11-28T12:10:35.479Z,97.10
2018-11-28T12:13:04.022Z,97.10
2018-11-28T12:15:32.186Z,97.10
2018-11-28T12:18:00.449Z,97.20
2018-11-28T12:20:34.726Z,96.90
2018-11-28T12:23:03.023Z,97.20
2018-11-28T12:25:31.404Z,97.30
2018-11-28T12:27:59.688Z,97.20
2018-11-28T12:30:27.970Z,97.20
2018-11-28T12:32:56.233Z,97.20
2018-11-28T12:35:24.590Z,97.40
2018-11-28T12:37:52.911Z,97.40
2018-11-28T12:40:21.174Z,97.70
2018-11-28T12:42:51.609Z,97.70
2018-11-28T12:45:20.960Z,97.70
2018-11-28T12:47:49.689Z,97.90
2018-11-28T12:50:19.358Z,98.00
2018-11-28T12:52:47.598Z,98.10
2018-11-28T12:55:16.078Z,98.10
2018-11-28T12:57:44.554Z,97.90
2018-11-28T13:00:14.385Z,98.00
2018-11-28T13:02:42.807Z,98.20
2018-11-28T13:05:12.653Z,98.10
2018-11-28T13:07:40.913Z,98.10
2018-11-28T13:10:15.129Z,98.20
2018-11-28T13:12:44.151Z,98.10
2018-11-28T13:15:13.654Z,98.20
2018-11-28T13:17:41.909Z,98.10
2018-11-28T13:20:12.184Z,98.00
2018-11-28T13:22:40.459Z,98.10
2018-11-28T13:25:13.121Z,98.30
2018-11-28T13:27:41.695Z,98.20
2018-11-28T13:30:11.735Z,98.10
2018-11-28T13:32:40.618Z,98.20
2018-11-28T13:35:08.909Z,98.20
2018-11-28T13:37:37.255Z,98.10
2018-11-28T13:40:07.321Z,98.10
2018-11-28T13:42:35.602Z,98.20
2018-11-28T13:45:03.963Z,98.20
2018-11-28T13:47:32.271Z,98.10
2018-11-28T13:50:00.553Z,98.10
2018-11-28T13:52:29.354Z,98.00
2018-11-28T13:57:25.967Z,98.00
2018-11-28T13:59:54.285Z,97.70
2018-11-28T14:02:22.589Z,97.70
2018-11-28T14:04:50.854Z,97.90
2018-11-28T14:07:19.138Z,97.90
2018-11-28T14:09:47.482Z,97.90
2018-11-28T14:12:15.799Z,97.90
2018-11-28T14:14:44.254Z,97.70
2018-11-28T14:17:12.528Z,97.80
2018-11-28T14:19:40.796Z,97.80
2018-11-28T14:22:13.086Z,97.70
2018-11-28T14:24:41.367Z,97.80
2018-11-28T14:27:09.605Z,97.90
2018-11-28T14:29:37.883Z,97.90
2018-11-28T14:32:06.175Z,97.90
2018-11-28T14:34:34.571Z,98.00
2018-11-28T14:37:02.908Z,98.10
2018-11-28T14:39:31.232Z,98.10
2018-11-28T14:41:59.545Z,98.10
2018-11-28T14:44:27.849Z,98.20
2018-11-28T14:46:56.076Z,98.30
2018-11-28T14:49:24.335Z,98.30
2018-11-28T14:51:52.598Z,98.40
2018-11-28T14:54:20.862Z,98.40
2018-11-28T14:56:49.120Z,98.70
2018-11-28T14:59:17.394Z,98.90
2018-11-28T15:01:45.658Z,99.10
2018-11-28T15:04:14.230Z,99.20
2018-11-28T15:06:49.168Z,99.10
2018-11-28T15:09:22.694Z,99.10
2018-11-28T15:11:51.295Z,99.10
2018-11-28T15:14:20.062Z,99.20
2018-11-28T15:16:48.294Z,99.30
2018-11-28T15:19:16.565Z,99.40
2018-11-28T15:21:44.850Z,99.50
2018-11-28T15:24:13.082Z,99.80
2018-11-28T15:26:41.342Z,99.90
2018-11-28T15:29:09.708Z,99.90
2018-11-28T15:31:37.974Z,99.90
2018-11-28T15:34:06.911Z,99.90
2018-11-28T15:36:35.455Z,99.90
2018-11-28T15:39:05.211Z,99.90
2018-11-28T15:41:33.494Z,99.90
2018-11-28T15:44:01.933Z,99.90
2018-11-28T15:46:30.227Z,99.90
2018-11-28T15:48:58.487Z,99.90
2018-11-28T15:51:26.783Z,99.90
2018-11-28T15:53:55.369Z,99.90
2018-11-28T15:56:23.669Z,99.90
2018-11-28T15:58:52.007Z,99.90
2018-11-28T16:01:20.637Z,99.90
2018-11-28T16:03:48.901Z,99.90
2018-11-28T16:06:17.233Z,99.90
2018-11-28T16:08:45.492Z,99.90
2018-11-28T16:11:16.065Z,99.90
2018-11-28T16:13:45.360Z,99.90
2018-11-28T16:16:13.674Z,99.90
2018-11-28T16:18:41.914Z,99.90
2018-11-28T16:21:10.149Z,99.90
2018-11-28T16:23:38.437Z,99.90
2018-11-28T16:26:06.894Z,99.90
2018-11-28T16:28:36.078Z,99.90
2018-11-28T16:31:04.530Z,99.90
2018-11-28T16:33:33.479Z,99.90
2018-11-28T16:36:02.929Z,99.90
2018-11-28T16:38:31.251Z,99.90
2018-11-28T16:40:59.864Z,99.90
2018-11-28T16:43:28.580Z,99.90
2018-11-28T16:45:57.529Z,99.90
2018-11-28T16:48:25.914Z,99.90
2018-11-28T16:50:54.170Z,99.90
2018-11-28T16:53:22.519Z,99.90
2018-11-28T16:55:50.824Z,99.90
2018-11-28T16:58:19.083Z,99.90
2018-11-28T17:00:47.390Z,99.90
2018-11-28T17:03:15.648Z,99.90
2018-11-28T17:05:43.991Z,99.90
2018-11-28T17:08:12.221Z,99.90
2018-11-28T17:10:40.498Z,99.90
2018-11-28T17:13:08.741Z,99.90
2018-11-28T17:15:37.005Z,99.90
2018-11-28T17:18:06.011Z,99.90
2018-11-28T17:20:34.296Z,99.90
2018-11-28T17:23:02.587Z,99.90
2018-11-28T17:25:31.664Z,99.90
2018-11-28T17:27:59.951Z,99.90
2018-11-28T17:30:29.209Z,99.90
2018-11-28T17:32:57.927Z,99.90
2018-11-28T17:35:26.372Z,99.90
2018-11-28T17:37:54.733Z,99.90
2018-11-28T17:40:24.307Z,99.90
2018-11-28T17:42:53.741Z,99.90
2018-11-28T17:45:22.592Z,99.90
2018-11-28T17:47:50.821Z,99.90
2018-11-28T17:50:23.039Z,99.90
2018-11-28T17:53:00.975Z,99.90
2018-11-28T17:55:30.927Z,99.90
2018-11-28T17:57:59.236Z,99.90
2018-11-28T18:00:27.514Z,99.90
2018-11-28T18:02:55.769Z,99.90
2018-11-28T18:05:24.291Z,99.90
2018-11-28T18:07:52.632Z,99.90
2018-11-28T18:10:21.628Z,99.90
2018-11-28T18:13:01.090Z,99.90
2018-11-28T18:15:29.369Z,99.90
2018-11-28T18:17:57.936Z,99.90
2018-11-28T18:20:26.207Z,99.90
2018-11-28T18:22:54.477Z,99.90
2018-11-28T18:25:23.615Z,99.90
2018-11-28T18:27:52.079Z,99.90
2018-11-28T18:30:20.399Z,99.90
2018-11-28T18:32:48.699Z,99.90
2018-11-28T18:35:17.081Z,99.90
2018-11-28T18:37:45.415Z,99.90
2018-11-28T18:40:13.807Z,99.90
2018-11-28T18:42:42.790Z,99.90
2018-11-28T18:45:19.636Z,99.90
2018-11-28T18:47:48.075Z,99.90
2018-11-28T18:50:16.455Z,99.90
2018-11-28T18:52:44.748Z,99.90
2018-11-28T18:55:17.114Z,99.90
2018-11-28T18:57:46.991Z,99.90
2018-11-28T19:00:21.516Z,99.90
2018-11-28T19:02:49.834Z,99.90
2018-11-28T19:05:18.294Z,99.90
2018-11-28T19:07:46.739Z,99.90
2018-11-28T19:10:26.636Z,99.90
2018-11-28T19:12:54.013Z,99.90
2018-11-28T19:15:24.387Z,99.90
2018-11-28T19:17:52.962Z,99.90
2018-11-28T19:20:22.147Z,99.90
2018-11-28T19:22:51.151Z,99.90
2018-11-28T19:25:22.628Z,99.90
2018-11-28T19:27:51.016Z,99.90
2018-11-28T19:30:21.624Z,99.90
2018-11-28T19:32:49.896Z,99.90
2018-11-28T19:35:18.241Z,99.90
2018-11-28T19:37:46.483Z,99.90
2018-11-28T19:41:23.783Z,99.90
2018-11-28T19:43:53.101Z,99.90
2018-11-28T19:46:22.381Z,99.90
2018-11-28T19:48:50.647Z,99.90
2018-11-28T19:51:19.824Z,99.90
2018-11-28T19:53:48.177Z,99.90
2018-11-28T19:56:16.519Z,99.90
2018-11-28T19:58:44.960Z,99.90
2018-11-28T20:01:13.633Z,99.90
2018-11-28T20:03:41.938Z,99.90
2018-11-28T20:06:10.441Z,99.90
2018-11-28T20:08:39.149Z,99.90
2018-11-28T20:11:08.089Z,99.90
2018-11-28T20:13:37.003Z,99.90
2018-11-28T20:16:05.738Z,99.90
2018-11-28T20:18:34.254Z,99.90
2018-11-28T20:21:02.689Z,99.90
2018-11-28T20:23:31.150Z,99.90
2018-11-28T20:25:59.391Z,99.90
2018-11-28T20:28:27.663Z,99.90
2018-11-28T20:30:55.903Z,99.90
2018-11-28T20:33:25.089Z,99.90
2018-11-28T20:35:54.512Z,99.90
2018-11-28T20:38:28.765Z,99.90
2018-11-28T20:40:58.388Z,99.90
2018-11-28T20:43:27.727Z,99.90
2018-11-28T20:45:56.671Z,99.90
2018-11-28T20:48:25.561Z,99.90
2018-11-28T20:50:54.092Z,99.90
2018-11-28T20:53:22.909Z,99.90
2018-11-28T20:55:51.722Z,99.90
2018-11-28T20:58:20.126Z,99.90
2018-11-28T21:00:49.092Z,99.90
2018-11-28T21:03:17.635Z,99.90
2018-11-28T21:05:46.479Z,99.90
2018-11-28T21:08:14.823Z,99.90
2018-11-28T21:10:43.589Z,99.90
2018-11-28T21:13:13.556Z,99.90
2018-11-28T21:15:43.964Z,99.90
2018-11-28T21:18:12.383Z,99.90
2018-11-28T21:20:42.307Z,99.90
2018-11-28T21:23:13.049Z,99.90
2018-11-28T21:25:41.327Z,99.90
2018-11-28T21:28:09.576Z,99.90
2018-11-28T21:30:38.125Z,99.90
2018-11-28T21:33:08.970Z,99.90
2018-11-28T21:35:38.808Z,99.90
2018-11-28T21:38:07.805Z,99.90
2018-11-28T21:40:36.104Z,99.90
2018-11-28T21:43:04.450Z,99.90
2018-11-28T21:45:32.733Z,99.90
2018-11-28T21:48:01.006Z,99.90
2018-11-28T21:50:29.306Z,99.90
2018-11-28T21:52:57.550Z,99.90
2018-11-28T21:55:26.029Z,99.90
2018-11-28T21:57:54.591Z,99.90
2018-11-28T22:00:23.942Z,99.90
2018-11-28T22:02:52.268Z,99.90
2018-11-28T22:05:20.741Z,99.90
2018-11-28T22:07:49.016Z,99.90
2018-11-28T22:10:19.129Z,99.90
2018-11-28T22:12:47.463Z,99.90
2018-11-28T22:15:16.563Z,99.90
2018-11-28T22:18:01.230Z,99.90
2018-11-28T22:20:29.494Z,99.90
2018-11-28T22:22:57.778Z,99.90
2018-11-28T22:25:27.709Z,99.90
2018-11-28T22:27:56.050Z,99.90
2018-11-28T22:30:26.418Z,99.90
2018-11-28T22:32:54.739Z,99.90
2018-11-28T22:35:23.099Z,99.90
2018-11-28T22:37:51.389Z,99.90
2018-11-28T22:40:27.578Z,99.90
2018-11-28T22:42:55.826Z,99.90
2018-11-28T22:45:27.075Z,99.90
2018-11-28T22:47:55.402Z,99.90
2018-11-28T22:50:23.738Z,99.90
2018-11-28T22:52:52.030Z,99.90
2018-11-28T22:55:20.441Z,99.90
2018-11-28T22:57:48.715Z,99.90
2018-11-28T23:00:29.297Z,99.90
2018-11-28T23:03:01.162Z,99.90
2018-11-28T23:05:30.531Z,99.90
2018-11-28T23:07:59.705Z,99.90
2018-11-28T23:10:27.983Z,99.90
2018-11-28T23:12:56.307Z,99.90
2018-11-28T23:15:24.712Z,99.90
2018-11-28T23:17:55.256Z,99.90
2018-11-28T23:20:21.324Z,99.90
2018-11-28T23:22:49.636Z,99.90
2018-11-28T23:25:17.969Z,99.90
2018-11-28T23:27:46.237Z,99.90
2018-11-28T23:30:17.500Z,99.90
2018-11-28T23:32:46.531Z,99.90
2018-11-28T23:35:14.803Z,99.90
2018-11-28T23:37:44.139Z,99.90
2018-11-28T23:40:19.226Z,99.90
2018-11-28T23:42:47.522Z,99.90
2018-11-28T23:45:16.090Z,99.90
2018-11-28T23:47:44.457Z,99.90
2018-11-28T23:50:17.342Z,99.90
2018-11-28T23:52:45.946Z,99.90
2018-11-28T23:55:23.242Z,99.90
2018-11-28T23:57:51.825Z,99.90
